createdAt,value
2018-12-02T00:00:59.720Z,4.50
2018-12-02T00:01:59.667Z,4.50
2018-12-02T00:02:59.658Z,4.40
2018-12-02T00:03:59.644Z,4.46
2018-12-02T00:04:59.628Z,4.43
2018-12-02T00:05:59.622Z,4.54
2018-12-02T00:06:59.616Z,4.58
2018-12-02T00:07:59.602Z,4.46
2018-12-02T00:08:59.585Z,4.55
2018-12-02T00:09:59.572Z,4.46
2018-12-02T00:10:59.561Z,4.40
2018-12-02T00:11:59.577Z,4.54
2018-12-02T00:12:59.547Z,4.55
2018-12-02T00:13:59.532Z,4.61
2018-12-02T00:14:59.525Z,4.54
2018-12-02T00:15:59.510Z,4.54
2018-12-02T00:16:59.502Z,4.52
2018-12-02T00:17:59.496Z,4.52
2018-12-02T00:18:59.485Z,4.58
2018-12-02T00:19:59.473Z,4.58
2018-12-02T00:20:59.453Z,4.54
2018-12-02T00:21:59.455Z,4.50
2018-12-02T00:22:59.434Z,4.52
2018-12-02T00:23:59.422Z,4.51
2018-12-02T00:24:59.412Z,4.59
2018-12-02T00:25:59.400Z,4.54
2018-12-02T00:26:59.390Z,4.44
2018-12-02T00:27:59.388Z,4.54
2018-12-02T00:28:59.386Z,4.54
2018-12-02T00:29:59.370Z,4.51
2018-12-02T00:30:59.357Z,4.54
2018-12-02T00:31:59.344Z,4.52
2018-12-02T00:32:59.333Z,4.51
2018-12-02T00:33:59.335Z,4.58
2018-12-02T00:34:59.346Z,4.54
2018-12-02T00:35:59.372Z,4.52
2018-12-02T00:36:59.283Z,4.55
2018-12-02T00:37:59.274Z,4.52
2018-12-02T00:38:59.263Z,4.55
2018-12-02T00:39:59.250Z,4.50
2018-12-02T00:40:59.263Z,4.55
2018-12-02T00:41:59.234Z,4.57
2018-12-02T00:42:59.219Z,4.62
2018-12-02T00:43:59.208Z,4.65
2018-12-02T00:44:59.197Z,4.65
2018-12-02T00:45:59.219Z,4.67
2018-12-02T00:46:59.174Z,4.65
2018-12-02T00:47:59.170Z,4.64
2018-12-02T00:48:59.155Z,4.67
2018-12-02T00:49:59.146Z,4.67
2018-12-02T00:50:59.132Z,4.70
2018-12-02T00:51:59.130Z,4.70
2018-12-02T00:52:59.124Z,4.65
2018-12-02T00:53:59.101Z,4.69
2018-12-02T00:54:59.093Z,4.65
2018-12-02T00:55:59.079Z,4.65
2018-12-02T00:56:59.087Z,4.75
2018-12-02T00:57:59.086Z,4.72
2018-12-02T00:58:59.052Z,4.70
2018-12-02T00:59:59.039Z,4.77
2018-12-02T01:00:59.038Z,4.72
2018-12-02T01:01:59.019Z,4.72
2018-12-02T01:02:59.012Z,4.76
2018-12-02T01:03:58.998Z,4.75
2018-12-02T01:04:58.982Z,4.77
2018-12-02T01:05:58.976Z,4.79
2018-12-02T01:06:58.967Z,4.72
2018-12-02T01:07:58.956Z,4.80
2018-12-02T01:08:58.942Z,4.75
2018-12-02T01:09:58.925Z,4.73
2018-12-02T01:10:58.922Z,4.69
2018-12-02T01:11:58.921Z,4.75
2018-12-02T01:12:58.902Z,4.73
2018-12-02T01:13:58.898Z,4.77
2018-12-02T01:14:58.884Z,4.76
2018-12-02T01:15:59.686Z,4.80
2018-12-02T01:16:58.856Z,4.75
2018-12-02T01:17:58.855Z,4.80
2018-12-02T01:18:58.912Z,4.75
2018-12-02T01:19:58.920Z,4.77
2018-12-02T01:20:58.808Z,4.73
2018-12-02T01:21:58.798Z,4.77
2018-12-02T01:22:58.791Z,4.80
2018-12-02T01:23:58.783Z,4.80
2018-12-02T01:24:58.771Z,4.86
2018-12-02T01:25:58.769Z,4.76
2018-12-02T01:26:58.748Z,4.76
2018-12-02T01:27:58.732Z,4.75
2018-12-02T01:28:58.730Z,4.79
2018-12-02T01:29:58.709Z,4.83
2018-12-02T01:30:58.716Z,4.76
2018-12-02T01:31:58.697Z,4.77
2018-12-02T01:32:58.684Z,4.84
2018-12-02T01:33:58.667Z,4.83
2018-12-02T01:34:58.666Z,4.75
2018-12-02T01:35:58.652Z,4.83
2018-12-02T01:36:58.647Z,4.83
2018-12-02T01:37:58.634Z,4.80
2018-12-02T01:38:58.618Z,4.80
2018-12-02T01:39:58.603Z,4.84
2018-12-02T01:40:58.597Z,4.75
2018-12-02T01:41:58.586Z,4.80
2018-12-02T01:42:58.583Z,4.84
2018-12-02T01:43:58.572Z,4.84
2018-12-02T01:44:58.548Z,4.89
2018-12-02T01:45:58.537Z,4.84
2018-12-02T01:46:58.543Z,4.88
2018-12-02T01:47:58.517Z,4.86
2018-12-02T01:48:58.514Z,4.84
2018-12-02T01:49:58.498Z,4.86
2018-12-02T01:50:58.486Z,4.84
2018-12-02T01:51:58.470Z,4.83
2018-12-02T01:52:58.474Z,4.88
2018-12-02T01:53:58.448Z,4.84
2018-12-02T01:54:58.449Z,4.89
2018-12-02T01:55:58.437Z,4.86
2018-12-02T01:56:58.422Z,4.91
2018-12-02T01:57:58.406Z,4.80
2018-12-02T01:58:58.398Z,4.86
2018-12-02T01:59:58.425Z,4.91
2018-12-02T02:00:58.374Z,4.86
2018-12-02T02:01:58.375Z,4.86
2018-12-02T02:02:59.184Z,4.84
2018-12-02T02:03:58.347Z,4.86
2018-12-02T02:04:58.331Z,4.79
2018-12-02T02:05:58.353Z,4.86
2018-12-02T02:06:58.319Z,4.88
2018-12-02T02:07:58.297Z,4.86
2018-12-02T02:08:58.290Z,4.88
2018-12-02T02:09:58.275Z,4.86
2018-12-02T02:10:58.272Z,4.86
2018-12-02T02:11:58.287Z,4.88
2018-12-02T02:12:58.246Z,4.91
2018-12-02T02:13:58.241Z,4.89
2018-12-02T02:14:58.227Z,4.84
2018-12-02T02:15:58.211Z,4.84
2018-12-02T02:16:58.203Z,4.86
2018-12-02T02:17:58.263Z,4.86
2018-12-02T02:18:58.188Z,4.88
2018-12-02T02:19:58.259Z,4.88
2018-12-02T02:20:58.169Z,4.86
2018-12-02T02:21:58.695Z,4.84
2018-12-02T02:22:58.144Z,4.91
2018-12-02T02:23:58.121Z,4.86
2018-12-02T02:24:58.156Z,4.91
2018-12-02T02:25:58.111Z,4.88
2018-12-02T02:26:58.093Z,4.88
2018-12-02T02:27:58.077Z,4.92
2018-12-02T02:28:58.070Z,4.89
2018-12-02T02:29:58.054Z,4.95
2018-12-02T02:30:58.084Z,4.86
2018-12-02T02:31:58.081Z,4.99
2018-12-02T02:32:58.028Z,4.99
2018-12-02T02:33:58.018Z,4.99
2018-12-02T02:34:58.001Z,4.92
2018-12-02T02:35:57.995Z,4.94
2018-12-02T02:36:57.991Z,5.07
2018-12-02T02:37:57.988Z,4.98
2018-12-02T02:38:57.959Z,4.96
2018-12-02T02:39:57.949Z,4.94
2018-12-02T02:40:57.937Z,4.96
2018-12-02T02:41:57.929Z,5.02
2018-12-02T02:42:57.924Z,5.07
2018-12-02T02:43:57.914Z,5.01
2018-12-02T02:44:57.893Z,5.02
2018-12-02T02:45:57.886Z,5.02
2018-12-02T02:46:57.938Z,5.04
2018-12-02T02:47:57.864Z,4.95
2018-12-02T02:48:57.861Z,4.99
2018-12-02T02:49:57.844Z,5.02
2018-12-02T02:50:57.836Z,4.98
2018-12-02T02:51:57.821Z,4.99
2018-12-02T02:52:57.813Z,4.96
2018-12-02T02:53:57.809Z,4.96
2018-12-02T02:54:57.793Z,5.09
2018-12-02T02:55:57.787Z,5.02
2018-12-02T02:56:57.766Z,5.09
2018-12-02T02:57:57.750Z,5.02
2018-12-02T02:58:57.746Z,5.04
2018-12-02T02:59:57.730Z,4.96
2018-12-02T03:00:57.728Z,5.12
2018-12-02T03:01:57.706Z,5.12
2018-12-02T03:02:57.709Z,5.05
2018-12-02T03:03:57.686Z,5.07
2018-12-02T03:04:57.676Z,5.04
2018-12-02T03:05:57.677Z,4.98
2018-12-02T03:06:57.654Z,5.13
2018-12-02T03:07:57.648Z,5.04
2018-12-02T03:08:57.638Z,5.04
2018-12-02T03:09:57.626Z,5.05
2018-12-02T03:10:57.626Z,5.02
2018-12-02T03:11:57.621Z,5.04
2018-12-02T03:12:57.617Z,5.04
2018-12-02T03:13:57.583Z,5.07
2018-12-02T03:14:57.565Z,5.07
2018-12-02T03:15:57.562Z,5.05
2018-12-02T03:16:57.585Z,5.07
2018-12-02T03:17:57.567Z,5.05
2018-12-02T03:18:57.532Z,5.04
2018-12-02T03:19:58.197Z,4.99
2018-12-02T03:20:57.501Z,5.07
2018-12-02T03:21:57.497Z,5.02
2018-12-02T03:22:57.494Z,5.09
2018-12-02T03:23:57.471Z,5.12
2018-12-02T03:24:57.460Z,5.05
2018-12-02T03:25:57.454Z,5.12
2018-12-02T03:26:57.441Z,5.10
2018-12-02T03:27:57.467Z,5.04
2018-12-02T03:28:57.415Z,5.13
2018-12-02T03:29:57.409Z,4.98
2018-12-02T03:30:57.398Z,5.10
2018-12-02T03:31:57.385Z,5.09
2018-12-02T03:32:57.382Z,5.10
2018-12-02T03:33:57.408Z,5.07
2018-12-02T03:34:57.360Z,5.07
2018-12-02T03:35:57.342Z,5.02
2018-12-02T03:36:57.338Z,5.04
2018-12-02T03:37:57.318Z,5.01
2018-12-02T03:38:57.313Z,5.04
2018-12-02T03:39:57.328Z,5.07
2018-12-02T03:40:57.289Z,5.09
2018-12-02T03:41:57.281Z,4.98
2018-12-02T03:42:57.275Z,5.14
2018-12-02T03:43:57.262Z,5.12
2018-12-02T03:44:57.248Z,5.05
2018-12-02T03:45:57.290Z,5.09
2018-12-02T03:46:57.226Z,5.05
2018-12-02T03:47:57.230Z,5.07
2018-12-02T03:48:57.200Z,5.10
2018-12-02T03:49:57.188Z,5.05
2018-12-02T03:50:57.187Z,5.12
2018-12-02T03:51:57.204Z,5.02
2018-12-02T03:52:57.161Z,5.07
2018-12-02T03:53:57.156Z,5.07
2018-12-02T03:54:57.133Z,5.10
2018-12-02T03:55:57.127Z,5.09
2018-12-02T03:56:57.113Z,5.09
2018-12-02T03:57:57.118Z,5.10
2018-12-02T03:58:57.090Z,5.13
2018-12-02T03:59:57.080Z,5.05
2018-12-02T04:00:57.078Z,5.09
2018-12-02T04:01:57.070Z,5.09
2018-12-02T04:02:57.052Z,5.07
2018-12-02T04:03:57.051Z,5.09
2018-12-02T04:04:57.031Z,5.05
2018-12-02T04:05:57.017Z,5.07
2018-12-02T04:06:57.028Z,5.13
2018-12-02T04:07:56.998Z,5.13
2018-12-02T04:08:57.702Z,5.10
2018-12-02T04:09:56.988Z,5.04
2018-12-02T04:10:56.962Z,5.10
2018-12-02T04:11:56.954Z,5.22
2018-12-02T04:12:56.964Z,5.17
2018-12-02T04:13:56.929Z,5.05
2018-12-02T04:14:56.931Z,5.13
2018-12-02T04:15:56.916Z,5.10
2018-12-02T04:16:56.902Z,5.14
2018-12-02T04:17:56.901Z,5.12
2018-12-02T04:18:56.873Z,5.17
2018-12-02T04:19:56.874Z,5.13
2018-12-02T04:20:56.854Z,5.19
2018-12-02T04:21:56.846Z,5.20
2018-12-02T04:22:56.849Z,5.13
2018-12-02T04:23:56.817Z,5.16
2018-12-02T04:24:56.819Z,5.19
2018-12-02T04:25:56.801Z,5.16
2018-12-02T04:26:56.805Z,5.14
2018-12-02T04:27:56.832Z,5.17
2018-12-02T04:28:56.771Z,5.13
2018-12-02T04:29:56.753Z,5.16
2018-12-02T04:30:56.744Z,5.14
2018-12-02T04:31:56.754Z,5.19
2018-12-02T04:32:56.725Z,5.22
2018-12-02T04:33:56.726Z,5.20
2018-12-02T04:34:56.713Z,5.25
2018-12-02T04:35:56.688Z,5.22
2018-12-02T04:36:56.682Z,5.25
2018-12-02T04:37:56.682Z,5.25
2018-12-02T04:38:56.681Z,5.14
2018-12-02T04:39:56.646Z,5.19
2018-12-02T04:40:56.634Z,5.13
2018-12-02T04:41:56.626Z,5.23
2018-12-02T04:42:56.620Z,5.13
2018-12-02T04:43:56.618Z,5.16
2018-12-02T04:44:56.611Z,5.14
2018-12-02T04:45:56.584Z,5.16
2018-12-02T04:46:56.575Z,5.16
2018-12-02T04:47:56.560Z,5.14
2018-12-02T04:48:56.586Z,5.14
2018-12-02T04:49:56.537Z,5.23
2018-12-02T04:50:56.530Z,5.16
2018-12-02T04:51:56.521Z,5.13
2018-12-02T04:52:56.506Z,5.17
2018-12-02T04:53:56.503Z,5.17
2018-12-02T04:54:56.526Z,5.12
2018-12-02T04:55:56.476Z,5.09
2018-12-02T04:56:56.461Z,5.02
2018-12-02T04:57:56.454Z,5.16
2018-12-02T04:58:56.444Z,5.04
2018-12-02T04:59:56.430Z,5.14
2018-12-02T05:00:56.438Z,5.10
2018-12-02T05:01:56.407Z,5.09
2018-12-02T05:02:56.403Z,5.05
2018-12-02T05:03:56.389Z,5.07
2018-12-02T05:04:56.419Z,5.09
2018-12-02T05:05:56.376Z,5.10
2018-12-02T05:06:56.354Z,5.10
2018-12-02T05:07:56.362Z,5.12
2018-12-02T05:08:56.337Z,5.01
2018-12-02T05:09:56.324Z,5.12
2018-12-02T05:10:56.325Z,5.10
2018-12-02T05:11:56.304Z,5.13
2018-12-02T05:12:56.293Z,5.12
2018-12-02T05:13:56.297Z,5.05
2018-12-02T05:14:56.270Z,5.13
2018-12-02T05:15:56.260Z,5.14
2018-12-02T05:16:56.252Z,5.22
2018-12-02T05:17:56.234Z,5.16
2018-12-02T05:18:56.235Z,5.14
2018-12-02T05:19:56.231Z,5.19
2018-12-02T05:20:56.211Z,5.16
2018-12-02T05:21:56.195Z,5.17
2018-12-02T05:22:56.181Z,5.12
2018-12-02T05:23:56.177Z,5.20
2018-12-02T05:24:56.163Z,5.05
2018-12-02T05:25:56.183Z,5.16
2018-12-02T05:26:56.137Z,5.14
2018-12-02T05:27:56.131Z,5.10
2018-12-02T05:28:56.115Z,5.10
2018-12-02T05:29:56.116Z,5.13
2018-12-02T05:30:56.095Z,5.17
2018-12-02T05:31:56.095Z,5.19
2018-12-02T05:32:56.076Z,5.16
2018-12-02T05:33:56.065Z,5.19
2018-12-02T05:34:56.054Z,5.16
2018-12-02T05:35:56.043Z,5.16
2018-12-02T05:36:56.041Z,5.22
2018-12-02T05:37:56.027Z,5.20
2018-12-02T05:38:56.069Z,5.25
2018-12-02T05:39:56.004Z,5.27
2018-12-02T05:40:55.997Z,5.30
2018-12-02T05:41:55.976Z,5.32
2018-12-02T05:42:56.010Z,5.30
2018-12-02T05:43:55.952Z,5.28
2018-12-02T05:44:55.944Z,5.32
2018-12-02T05:45:55.931Z,5.35
2018-12-02T05:46:55.925Z,5.31
2018-12-02T05:47:55.918Z,5.32
2018-12-02T05:48:55.914Z,5.30
2018-12-02T05:49:55.889Z,5.37
2018-12-02T05:50:55.881Z,5.31
2018-12-02T05:51:55.866Z,5.32
2018-12-02T05:52:55.869Z,5.27
2018-12-02T05:53:55.851Z,5.31
2018-12-02T05:54:55.840Z,5.34
2018-12-02T05:55:55.827Z,5.30
2018-12-02T05:56:55.812Z,5.28
2018-12-02T05:57:55.814Z,5.27
2018-12-02T05:58:55.803Z,5.34
2018-12-02T05:59:55.787Z,5.30
2018-12-02T06:00:55.780Z,5.23
2018-12-02T06:01:55.758Z,5.23
2018-12-02T06:02:55.783Z,5.25
2018-12-02T06:03:55.741Z,5.23
2018-12-02T06:04:55.737Z,5.19
2018-12-02T06:05:55.722Z,5.28
2018-12-02T06:06:55.710Z,5.23
2018-12-02T06:07:55.699Z,5.23
2018-12-02T06:08:55.718Z,5.19
2018-12-02T06:09:55.671Z,5.30
2018-12-02T06:10:55.657Z,5.23
2018-12-02T06:11:55.652Z,5.27
2018-12-02T06:12:55.640Z,5.32
2018-12-02T06:13:55.631Z,5.20
2018-12-02T06:14:55.625Z,5.23
2018-12-02T06:15:55.643Z,5.27
2018-12-02T06:16:55.599Z,5.16
2018-12-02T06:17:55.582Z,5.23
2018-12-02T06:18:55.577Z,5.23
2018-12-02T06:19:55.562Z,5.25
2018-12-02T06:20:55.557Z,5.28
2018-12-02T06:21:55.551Z,5.28
2018-12-02T06:22:55.536Z,5.35
2018-12-02T06:23:55.517Z,5.35
2018-12-02T06:24:55.567Z,5.30
2018-12-02T06:25:55.507Z,5.32
2018-12-02T06:26:55.494Z,5.34
2018-12-02T06:27:55.483Z,5.31
2018-12-02T06:28:55.460Z,5.38
2018-12-02T06:29:55.458Z,5.34
2018-12-02T06:30:55.449Z,5.41
2018-12-02T06:31:55.428Z,5.38
2018-12-02T06:32:55.424Z,5.35
2018-12-02T06:33:55.411Z,5.37
2018-12-02T06:34:55.408Z,5.45
2018-12-02T06:35:55.401Z,5.46
2018-12-02T06:36:55.379Z,5.55
2018-12-02T06:37:55.367Z,5.43
2018-12-02T06:38:55.355Z,5.48
2018-12-02T06:39:55.349Z,5.46
2018-12-02T06:40:55.334Z,5.52
2018-12-02T06:41:55.356Z,5.52
2018-12-02T06:42:55.317Z,5.52
2018-12-02T06:43:55.298Z,5.56
2018-12-02T06:44:55.284Z,5.48
2018-12-02T06:45:55.276Z,5.49
2018-12-02T06:46:55.268Z,5.55
2018-12-02T06:47:55.264Z,5.43
2018-12-02T06:48:55.251Z,5.52
2018-12-02T06:49:55.244Z,5.49
2018-12-02T06:50:55.222Z,5.53
2018-12-02T06:51:55.210Z,5.59
2018-12-02T06:52:55.206Z,5.48
2018-12-02T06:53:55.185Z,5.49
2018-12-02T06:54:55.186Z,5.55
2018-12-02T06:55:55.165Z,5.52
2018-12-02T06:56:55.155Z,5.52
2018-12-02T06:57:55.158Z,5.52
2018-12-02T06:58:55.139Z,5.49
2018-12-02T06:59:55.132Z,5.52
2018-12-02T07:00:55.120Z,5.49
2018-12-02T07:01:55.103Z,5.49
2018-12-02T07:02:55.101Z,5.56
2018-12-02T07:03:55.077Z,5.52
2018-12-02T07:04:55.065Z,5.57
2018-12-02T07:05:55.280Z,5.56
2018-12-02T07:06:55.047Z,5.52
2018-12-02T07:07:55.038Z,5.49
2018-12-02T07:08:55.027Z,5.59
2018-12-02T07:09:55.015Z,5.56
2018-12-02T07:10:55.004Z,5.50
2018-12-02T07:11:55.035Z,5.53
2018-12-02T07:12:54.985Z,5.59
2018-12-02T07:13:54.971Z,5.53
2018-12-02T07:14:54.961Z,5.55
2018-12-02T07:15:54.951Z,5.52
2018-12-02T07:16:54.943Z,5.55
2018-12-02T07:17:54.950Z,5.60
2018-12-02T07:18:54.918Z,5.68
2018-12-02T07:19:54.905Z,5.53
2018-12-02T07:20:54.894Z,5.60
2018-12-02T07:21:54.881Z,5.70
2018-12-02T07:22:54.871Z,5.64
2018-12-02T07:23:54.886Z,5.63
2018-12-02T07:24:54.845Z,5.59
2018-12-02T07:25:54.869Z,5.70
2018-12-02T07:26:54.828Z,5.66
2018-12-02T07:27:54.812Z,5.66
2018-12-02T07:28:54.802Z,5.63
2018-12-02T07:29:54.808Z,5.67
2018-12-02T07:30:54.789Z,5.60
2018-12-02T07:31:54.796Z,5.64
2018-12-02T07:32:54.778Z,5.64
2018-12-02T07:33:54.759Z,5.67
2018-12-02T07:34:54.742Z,5.73
2018-12-02T07:35:54.729Z,5.71
2018-12-02T07:36:54.714Z,5.75
2018-12-02T07:37:54.707Z,5.78
2018-12-02T07:38:54.693Z,5.75
2018-12-02T07:39:54.695Z,5.83
2018-12-02T07:40:54.681Z,5.83
2018-12-02T07:41:54.663Z,5.73
2018-12-02T07:42:54.778Z,5.83
2018-12-02T07:43:54.639Z,5.81
2018-12-02T07:44:54.630Z,5.81
2018-12-02T07:45:54.693Z,5.81
2018-12-02T07:46:54.605Z,5.82
2018-12-02T07:47:54.593Z,5.86
2018-12-02T07:48:54.598Z,5.82
2018-12-02T07:49:54.572Z,5.81
2018-12-02T07:50:54.567Z,5.82
2018-12-02T07:51:54.550Z,5.86
2018-12-02T07:52:54.544Z,5.81
2018-12-02T07:53:54.536Z,5.81
2018-12-02T07:54:54.521Z,5.82
2018-12-02T07:55:54.513Z,5.83
2018-12-02T07:56:54.495Z,5.85
2018-12-02T07:57:54.486Z,5.78
2018-12-02T07:58:54.489Z,5.88
2018-12-02T07:59:54.469Z,5.88
2018-12-02T08:00:54.496Z,5.85
2018-12-02T08:01:54.441Z,5.75
2018-12-02T08:02:54.441Z,5.91
2018-12-02T08:03:54.426Z,5.85
2018-12-02T08:04:54.403Z,5.85
2018-12-02T08:05:54.403Z,5.88
2018-12-02T08:06:54.437Z,5.86
2018-12-02T08:07:54.385Z,5.86
2018-12-02T08:08:54.370Z,5.88
2018-12-02T08:09:54.356Z,5.91
2018-12-02T08:10:54.384Z,5.88
2018-12-02T08:11:54.338Z,5.89
2018-12-02T08:12:54.315Z,5.86
2018-12-02T08:13:54.304Z,5.92
2018-12-02T08:14:54.294Z,5.92
2018-12-02T08:15:54.286Z,5.95
2018-12-02T08:16:54.318Z,5.93
2018-12-02T08:17:54.266Z,5.88
2018-12-02T08:18:54.255Z,5.93
2018-12-02T08:19:54.251Z,5.88
2018-12-02T08:20:54.228Z,5.92
2018-12-02T08:21:54.223Z,5.91
2018-12-02T08:22:54.216Z,5.92
2018-12-02T08:23:54.207Z,5.92
2018-12-02T08:24:54.739Z,5.96
2018-12-02T08:25:54.174Z,5.93
2018-12-02T08:26:54.162Z,5.89
2018-12-02T08:27:54.159Z,5.92
2018-12-02T08:28:54.142Z,5.88
2018-12-02T08:29:54.134Z,5.91
2018-12-02T08:30:54.119Z,5.96
2018-12-02T08:31:54.114Z,5.91
2018-12-02T08:32:54.127Z,5.89
2018-12-02T08:33:54.085Z,5.96
2018-12-02T08:34:54.072Z,5.93
2018-12-02T08:35:54.066Z,6.01
2018-12-02T08:36:54.052Z,6.06
2018-12-02T08:37:54.052Z,6.04
2018-12-02T08:38:54.038Z,6.03
2018-12-02T08:39:54.018Z,5.95
2018-12-02T08:40:54.005Z,6.04
2018-12-02T08:42:01.757Z,6.00
2018-12-02T08:42:54.001Z,6.03
2018-12-02T08:43:53.986Z,6.07
2018-12-02T08:44:53.963Z,6.06
2018-12-02T08:45:53.949Z,6.10
2018-12-02T08:46:53.948Z,6.04
2018-12-02T08:47:53.931Z,6.11
2018-12-02T08:48:53.942Z,6.10
2018-12-02T08:49:53.906Z,6.11
2018-12-02T08:50:53.895Z,6.10
2018-12-02T08:51:53.894Z,6.07
2018-12-02T08:52:53.873Z,6.04
2018-12-02T08:53:53.861Z,6.11
2018-12-02T08:54:53.874Z,6.13
2018-12-02T08:55:53.842Z,6.10
2018-12-02T08:56:53.836Z,6.09
2018-12-02T08:57:53.866Z,6.07
2018-12-02T08:58:53.811Z,6.14
2018-12-02T08:59:53.811Z,6.18
2018-12-02T09:00:53.789Z,6.18
2018-12-02T09:01:53.793Z,6.07
2018-12-02T09:02:53.764Z,6.11
2018-12-02T09:03:53.758Z,6.16
2018-12-02T09:04:53.750Z,6.22
2018-12-02T09:05:53.741Z,6.22
2018-12-02T09:06:53.868Z,6.29
2018-12-02T09:07:54.718Z,6.18
2018-12-02T09:08:53.725Z,6.38
2018-12-02T09:09:59.374Z,6.30
2018-12-02T09:10:54.681Z,6.25
2018-12-02T09:11:53.698Z,6.28
2018-12-02T09:12:53.664Z,6.30
2018-12-02T09:13:53.646Z,6.33
2018-12-02T09:14:53.632Z,6.32
2018-12-02T09:15:53.627Z,6.35
2018-12-02T09:16:53.626Z,6.40
2018-12-02T09:17:53.609Z,6.40
2018-12-02T09:18:53.594Z,6.41
2018-12-02T09:19:53.591Z,6.40
2018-12-02T09:20:53.570Z,6.41
2018-12-02T09:21:53.556Z,6.43
2018-12-02T09:22:53.552Z,6.40
2018-12-02T09:23:53.538Z,6.36
2018-12-02T09:24:53.548Z,6.41
2018-12-02T09:25:53.513Z,6.36
2018-12-02T09:26:53.505Z,6.41
2018-12-02T09:27:53.529Z,6.44
2018-12-02T09:28:53.482Z,6.44
2018-12-02T09:29:53.472Z,6.51
2018-12-02T09:30:53.457Z,6.58
2018-12-02T09:31:53.452Z,6.47
2018-12-02T09:32:53.434Z,6.54
2018-12-02T09:33:53.433Z,6.47
2018-12-02T09:34:53.417Z,6.47
2018-12-02T09:35:53.407Z,6.51
2018-12-02T09:36:57.937Z,6.47
2018-12-02T09:37:53.419Z,6.58
2018-12-02T09:38:53.370Z,6.53
2018-12-02T09:39:53.360Z,6.51
2018-12-02T09:40:53.357Z,6.51
2018-12-02T09:41:53.335Z,6.50
2018-12-02T09:42:53.332Z,6.53
2018-12-02T09:43:53.331Z,6.56
2018-12-02T09:44:53.311Z,6.48
2018-12-02T09:45:53.299Z,6.48
2018-12-02T09:46:53.289Z,6.50
2018-12-02T09:47:53.321Z,6.56
2018-12-02T09:48:53.262Z,6.51
2018-12-02T09:49:53.281Z,6.65
2018-12-02T09:50:53.241Z,6.46
2018-12-02T09:51:53.234Z,6.62
2018-12-02T09:52:53.222Z,6.56
2018-12-02T09:53:53.209Z,6.61
2018-12-02T09:54:53.198Z,6.62
2018-12-02T09:55:53.203Z,6.65
2018-12-02T09:56:53.172Z,6.65
2018-12-02T09:57:53.163Z,6.66
2018-12-02T09:58:53.155Z,6.65
2018-12-02T09:59:53.150Z,6.72
2018-12-02T10:00:53.127Z,6.63
2018-12-02T10:01:53.129Z,6.66
2018-12-02T10:02:53.106Z,6.63
2018-12-02T10:03:53.106Z,6.62
2018-12-02T10:04:53.095Z,6.72
2018-12-02T10:05:53.080Z,6.79
2018-12-02T10:06:53.076Z,6.71
2018-12-02T10:07:53.060Z,6.73
2018-12-02T10:08:53.045Z,6.91
2018-12-02T10:09:53.029Z,6.89
2018-12-02T10:10:53.025Z,6.81
2018-12-02T10:11:53.013Z,6.84
2018-12-02T10:12:53.008Z,6.95
2018-12-02T10:13:52.986Z,6.84
2018-12-02T10:14:52.983Z,6.90
2018-12-02T10:15:52.970Z,6.89
2018-12-02T10:16:52.957Z,7.01
2018-12-02T10:17:52.964Z,7.01
2018-12-02T10:18:52.937Z,7.04
2018-12-02T10:19:52.927Z,7.01
2018-12-02T10:20:52.916Z,7.07
2018-12-02T10:21:52.925Z,7.02
2018-12-02T10:22:52.905Z,7.05
2018-12-02T10:23:52.928Z,7.08
2018-12-02T10:24:52.884Z,7.07
2018-12-02T10:25:52.860Z,7.09
2018-12-02T10:26:52.855Z,7.07
2018-12-02T10:27:52.838Z,7.12
2018-12-02T10:28:52.827Z,7.17
2018-12-02T10:29:52.826Z,7.16
2018-12-02T10:30:52.807Z,7.16
2018-12-02T10:31:52.791Z,7.24
2018-12-02T10:32:53.781Z,7.24
2018-12-02T10:33:52.771Z,7.27
2018-12-02T10:34:52.785Z,7.34
2018-12-02T10:35:52.760Z,7.29
2018-12-02T10:36:52.735Z,7.27
2018-12-02T10:37:52.732Z,7.35
2018-12-02T10:38:52.727Z,7.26
2018-12-02T10:39:52.722Z,7.35
2018-12-02T10:40:52.706Z,7.37
2018-12-02T10:41:52.681Z,7.26
2018-12-02T10:42:52.676Z,7.32
2018-12-02T10:43:52.666Z,7.27
2018-12-02T10:44:52.647Z,7.34
2018-12-02T10:45:52.650Z,7.40
2018-12-02T10:46:52.629Z,7.37
2018-12-02T10:47:52.619Z,7.44
2018-12-02T10:48:52.613Z,7.42
2018-12-02T10:49:52.595Z,7.40
2018-12-02T10:50:52.589Z,7.50
2018-12-02T10:51:52.570Z,7.44
2018-12-02T10:52:52.558Z,7.41
2018-12-02T10:53:52.548Z,7.52
2018-12-02T10:54:52.542Z,7.52
2018-12-02T10:55:52.554Z,7.50
2018-12-02T10:56:52.519Z,7.42
2018-12-02T10:57:52.516Z,7.52
2018-12-02T10:58:52.498Z,7.49
2018-12-02T10:59:52.486Z,7.50
2018-12-02T11:00:52.471Z,7.50
2018-12-02T11:01:52.467Z,7.58
2018-12-02T11:02:52.450Z,7.52
2018-12-02T11:03:52.438Z,7.55
2018-12-02T11:04:52.425Z,7.55
2018-12-02T11:05:52.419Z,7.56
2018-12-02T11:06:52.420Z,7.62
2018-12-02T11:07:52.395Z,7.58
2018-12-02T11:08:52.394Z,7.56
2018-12-02T11:09:52.378Z,7.55
2018-12-02T11:10:52.378Z,7.53
2018-12-02T11:11:52.354Z,7.53
2018-12-02T11:12:52.340Z,7.63
2018-12-02T11:13:52.328Z,7.62
2018-12-02T11:14:52.326Z,7.62
2018-12-02T11:15:52.305Z,7.75
2018-12-02T11:16:52.309Z,7.71
2018-12-02T11:17:52.292Z,7.67
2018-12-02T11:18:52.294Z,7.67
2018-12-02T11:19:52.267Z,7.62
2018-12-02T11:20:52.269Z,7.71
2018-12-02T11:21:52.243Z,7.63
2018-12-02T11:22:52.236Z,7.66
2018-12-02T11:23:52.219Z,7.62
2018-12-02T11:24:52.223Z,7.72
2018-12-02T11:25:52.201Z,7.71
2018-12-02T11:26:52.186Z,7.60
2018-12-02T11:27:52.181Z,7.59
2018-12-02T11:28:52.170Z,7.62
2018-12-02T11:29:52.184Z,7.71
2018-12-02T11:30:52.157Z,7.59
2018-12-02T11:31:52.135Z,7.62
2018-12-02T11:32:52.135Z,7.66
2018-12-02T11:33:52.114Z,7.62
2018-12-02T11:34:52.098Z,7.63
2018-12-02T11:35:52.095Z,7.67
2018-12-02T11:36:52.077Z,7.66
2018-12-02T11:37:52.074Z,7.67
2018-12-02T11:38:52.054Z,7.66
2018-12-02T11:39:52.054Z,7.71
2018-12-02T11:40:52.044Z,7.72
2018-12-02T11:41:52.027Z,7.62
2018-12-02T11:42:52.010Z,7.67
2018-12-02T11:43:52.007Z,7.71
2018-12-02T11:44:52.002Z,7.74
2018-12-02T11:45:52.002Z,7.66
2018-12-02T11:46:51.968Z,7.67
2018-12-02T11:47:51.967Z,7.69
2018-12-02T11:48:51.949Z,7.72
2018-12-02T11:49:51.950Z,7.85
2018-12-02T11:50:51.934Z,7.82
2018-12-02T11:51:51.918Z,7.89
2018-12-02T11:52:51.906Z,7.82
2018-12-02T11:53:51.896Z,7.79
2018-12-02T11:54:51.882Z,7.90
2018-12-02T11:55:51.885Z,7.93
2018-12-02T11:56:51.863Z,7.96
2018-12-02T11:57:51.862Z,7.93
2018-12-02T11:58:51.983Z,7.99
2018-12-02T11:59:51.833Z,7.87
2018-12-02T12:00:51.825Z,7.99
2018-12-02T12:01:51.809Z,8.00
2018-12-02T12:02:51.919Z,7.89
2018-12-02T12:03:51.782Z,8.03
2018-12-02T12:04:51.779Z,7.99
2018-12-02T12:05:51.887Z,7.94
2018-12-02T12:06:51.756Z,7.93
2018-12-02T12:07:51.747Z,8.00
2018-12-02T12:08:51.740Z,7.99
2018-12-02T12:09:51.727Z,7.94
2018-12-02T12:10:51.712Z,7.94
2018-12-02T12:11:51.710Z,7.96
2018-12-02T12:12:51.733Z,7.97
2018-12-02T12:13:51.681Z,7.90
2018-12-02T12:14:51.665Z,7.99
2018-12-02T12:15:51.654Z,7.96
2018-12-02T12:16:51.649Z,7.99
2018-12-02T12:17:51.636Z,7.94
2018-12-02T12:18:51.635Z,7.99
2018-12-02T12:19:51.625Z,7.92
2018-12-02T12:20:51.603Z,7.97
2018-12-02T12:21:51.588Z,7.99
2018-12-02T12:22:51.578Z,7.94
2018-12-02T12:23:51.594Z,7.96
2018-12-02T12:24:51.559Z,7.90
2018-12-02T12:25:51.556Z,8.00
2018-12-02T12:26:51.534Z,8.02
2018-12-02T12:27:51.533Z,7.94
2018-12-02T12:28:51.521Z,7.94
2018-12-02T12:29:51.500Z,7.89
2018-12-02T12:30:51.555Z,7.93
2018-12-02T12:31:51.491Z,7.90
2018-12-02T12:32:51.470Z,7.90
2018-12-02T12:33:51.513Z,7.84
2018-12-02T12:34:51.451Z,7.81
2018-12-02T12:35:51.436Z,7.82
2018-12-02T12:36:51.425Z,7.84
2018-12-02T12:37:51.414Z,7.85
2018-12-02T12:38:51.409Z,7.78
2018-12-02T12:39:51.411Z,7.79
2018-12-02T12:40:51.398Z,7.78
2018-12-02T12:41:51.370Z,7.71
2018-12-02T12:42:51.366Z,7.75
2018-12-02T12:43:51.353Z,7.66
2018-12-02T12:44:51.340Z,7.66
2018-12-02T12:45:51.341Z,7.71
2018-12-02T12:46:51.318Z,7.67
2018-12-02T12:47:51.312Z,7.62
2018-12-02T12:48:51.335Z,7.66
2018-12-02T12:49:52.344Z,7.67
2018-12-02T12:50:51.309Z,7.66
2018-12-02T12:51:51.266Z,7.63
2018-12-02T12:52:51.253Z,7.62
2018-12-02T12:53:51.241Z,7.62
2018-12-02T12:54:51.751Z,7.53
2018-12-02T12:55:51.334Z,7.55
2018-12-02T12:56:51.215Z,7.59
2018-12-02T12:57:51.196Z,7.56
2018-12-02T12:58:51.190Z,7.52
2018-12-02T12:59:51.178Z,7.58
2018-12-02T13:00:51.166Z,7.56
2018-12-02T13:01:51.163Z,7.44
2018-12-02T13:02:51.160Z,7.52
2018-12-02T13:03:51.152Z,7.50
2018-12-02T13:04:51.129Z,7.50
2018-12-02T13:05:51.146Z,7.44
2018-12-02T13:06:51.100Z,7.59
2018-12-02T13:07:51.088Z,7.41
2018-12-02T13:08:51.083Z,7.50
2018-12-02T13:09:51.061Z,7.56
2018-12-02T13:10:51.768Z,7.58
2018-12-02T13:11:51.061Z,7.55
2018-12-02T13:12:51.374Z,7.59
2018-12-02T13:13:51.022Z,7.52
2018-12-02T13:14:51.015Z,7.49
2018-12-02T13:15:51.007Z,7.49
2018-12-02T13:16:50.986Z,7.49
2018-12-02T13:17:50.982Z,7.52
2018-12-02T13:18:50.990Z,7.52